createdAt,value
2022-12-17T00:05:17.619Z,30.38
2022-12-17T00:11:51.389Z,30.67
2022-12-17T00:18:12.282Z,30.47
2022-12-17T00:24:32.633Z,28.15
2022-12-17T00:30:53.135Z,27.98
2022-12-17T00:37:14.166Z,27.33
2022-12-17T00:43:34.589Z,31.92
2022-12-17T00:49:56.164Z,30.60
2022-12-17T00:56:16.315Z,30.58
2022-12-17T01:02:36.834Z,24.85
2022-12-17T01:08:57.147Z,26.83
2022-12-17T01:15:17.285Z,26.13
2022-12-17T01:21:39.275Z,24.60
2022-12-17T01:27:59.594Z,26.80
2022-12-17T01:34:20.299Z,26.60
2022-12-17T01:40:40.565Z,28.80
2022-12-17T01:47:09.820Z,29.05
2022-12-17T01:53:30.943Z,26.40
2022-12-17T02:00:08.829Z,27.10
2022-12-17T02:06:46.021Z,25.83
2022-12-17T02:13:10.562Z,26.33
2022-12-17T02:19:53.449Z,23.85
2022-12-17T02:26:15.236Z,25.83
2022-12-17T02:32:37.302Z,26.50
2022-12-17T02:38:57.862Z,27.55
2022-12-17T02:45:19.159Z,26.58
2022-12-17T02:51:40.760Z,25.13
2022-12-17T02:58:01.467Z,27.92
2022-12-17T03:04:21.643Z,26.30
2022-12-17T03:10:41.908Z,32.75
2022-12-17T03:17:02.455Z,33.80
2022-12-17T03:23:28.666Z,31.10
2022-12-17T03:29:49.020Z,28.85
2022-12-17T03:36:12.430Z,26.63
2022-12-17T03:42:32.664Z,25.73
2022-12-17T03:48:53.061Z,25.35
2022-12-17T03:55:13.355Z,27.92
2022-12-17T04:01:33.851Z,23.98
2022-12-17T04:07:54.102Z,25.77
2022-12-17T04:14:14.533Z,30.27
2022-12-17T04:20:34.680Z,32.17
2022-12-17T04:26:55.021Z,30.02
2022-12-17T04:33:16.947Z,24.73
2022-12-17T04:39:37.441Z,20.90
2022-12-17T04:45:57.718Z,22.23
2022-12-17T04:52:17.992Z,19.25
2022-12-17T04:58:38.404Z,23.77
2022-12-17T05:04:58.635Z,26.95
2022-12-17T05:11:25.498Z,21.67
2022-12-17T05:17:46.060Z,20.42
2022-12-17T05:24:06.605Z,20.88
2022-12-17T05:30:27.191Z,20.33
2022-12-17T05:36:47.899Z,21.58
2022-12-17T05:43:16.308Z,23.08
2022-12-17T05:49:36.902Z,25.02
2022-12-17T05:55:57.130Z,21.45
2022-12-17T06:02:17.461Z,21.92
2022-12-17T06:08:38.052Z,20.98
2022-12-17T06:14:58.138Z,22.52
2022-12-17T06:21:18.469Z,22.95
2022-12-17T06:27:38.975Z,19.75
2022-12-17T06:33:59.775Z,18.85
2022-12-17T06:40:20.258Z,24.67
2022-12-17T06:46:40.880Z,26.58
2022-12-17T06:53:01.341Z,25.48
2022-12-17T06:59:21.903Z,22.77
2022-12-17T07:05:42.137Z,23.13
2022-12-17T07:12:02.978Z,21.63
2022-12-17T07:18:23.328Z,24.02
2022-12-17T07:24:43.489Z,23.73
2022-12-17T07:31:03.710Z,21.23
2022-12-17T07:37:24.234Z,20.88
2022-12-17T07:43:48.244Z,22.58
2022-12-17T07:50:12.926Z,23.95
2022-12-17T07:56:33.136Z,20.90
2022-12-17T08:02:53.480Z,20.35
2022-12-17T08:09:13.957Z,20.70
2022-12-17T08:15:34.239Z,19.05
2022-12-17T08:21:54.457Z,23.63
2022-12-17T08:28:41.606Z,20.58
2022-12-17T08:34:57.245Z,22.88
2022-12-17T08:41:19.490Z,17.75
2022-12-17T08:47:40.612Z,18.40
2022-12-17T08:54:00.847Z,20.55
2022-12-17T09:00:21.220Z,19.13
2022-12-17T09:06:41.755Z,18.40
2022-12-17T09:13:04.924Z,20.77
2022-12-17T09:19:27.937Z,19.85
2022-12-17T09:25:48.129Z,20.27
2022-12-17T09:32:08.351Z,18.95
2022-12-17T09:38:34.953Z,19.15
2022-12-17T09:45:06.146Z,20.45
2022-12-17T09:51:43.434Z,20.20
2022-12-17T09:58:04.413Z,19.60
2022-12-17T10:04:34.353Z,24.95
2022-12-17T10:10:58.675Z,22.55
2022-12-17T10:17:19.203Z,24.23
2022-12-17T10:23:47.612Z,24.80
2022-12-17T10:30:07.630Z,25.17
2022-12-17T10:36:42.605Z,23.20
2022-12-17T10:43:06.110Z,25.27
2022-12-17T10:49:32.661Z,24.27
2022-12-17T10:55:54.250Z,27.38
2022-12-17T11:02:17.450Z,27.02
2022-12-17T11:08:38.957Z,25.48
2022-12-17T11:15:08.825Z,23.95
2022-12-17T11:21:49.971Z,25.80
2022-12-17T11:28:52.144Z,27.23
2022-12-17T11:35:36.298Z,24.02
2022-12-17T11:42:11.005Z,25.58
2022-12-17T11:48:44.396Z,24.77
2022-12-17T11:55:13.162Z,26.38
2022-12-17T12:01:54.060Z,25.88
2022-12-17T12:08:29.592Z,23.73
2022-12-17T12:15:04.845Z,25.30
2022-12-17T12:21:58.179Z,24.90
2022-12-17T12:28:29.130Z,25.30
2022-12-17T12:34:55.048Z,22.98
2022-12-17T12:41:30.383Z,24.00
2022-12-17T12:55:04.703Z,23.10
2022-12-17T13:01:25.193Z,23.92
2022-12-17T13:07:30.079Z,25.38
2022-12-17T13:13:36.671Z,24.98
2022-12-17T13:19:44.328Z,25.17
2022-12-17T13:25:46.394Z,27.38
2022-12-17T13:32:06.268Z,24.90
2022-12-17T13:38:50.074Z,26.17
2022-12-17T13:44:55.821Z,25.50
2022-12-17T13:51:05.655Z,28.48
2022-12-17T13:57:15.142Z,25.70
2022-12-17T14:03:32.335Z,27.58
2022-12-17T14:09:44.387Z,29.45
2022-12-17T14:15:49.764Z,24.65
2022-12-17T14:21:51.954Z,27.25
2022-12-17T14:28:02.417Z,29.10
2022-12-17T14:34:11.152Z,28.20
2022-12-17T14:40:15.710Z,28.40
2022-12-17T14:46:20.382Z,30.17
2022-12-17T14:52:33.061Z,31.40
2022-12-17T14:58:45.937Z,30.80
2022-12-17T15:04:47.708Z,30.73
2022-12-17T15:10:49.978Z,32.60
2022-12-17T15:16:51.748Z,31.10
2022-12-17T15:22:53.486Z,33.40
2022-12-17T15:28:55.259Z,29.38
2022-12-17T15:34:57.007Z,30.55
2022-12-17T15:41:23.378Z,31.42
2022-12-17T15:47:25.145Z,31.85
2022-12-17T15:53:26.949Z,29.17
2022-12-17T15:59:28.734Z,32.55
2022-12-17T16:05:30.524Z,29.88
2022-12-17T16:11:32.284Z,31.92
2022-12-17T16:17:34.530Z,29.70
2022-12-17T16:23:36.398Z,31.63
2022-12-17T16:29:38.236Z,30.17
2022-12-17T16:35:41.026Z,27.90
2022-12-17T16:41:43.515Z,24.75
2022-12-17T16:47:45.222Z,25.08
2022-12-17T16:53:46.958Z,28.88
2022-12-17T16:59:48.703Z,28.02
2022-12-17T17:05:50.571Z,25.83
2022-12-17T17:11:55.630Z,19.90
2022-12-17T17:17:57.535Z,16.83
2022-12-17T17:24:20.967Z,14.30
2022-12-17T17:30:23.270Z,12.95
2022-12-17T17:36:27.905Z,12.93
2022-12-17T17:48:33.419Z,35.33
2022-12-17T17:54:35.248Z,38.22
2022-12-17T18:00:37.715Z,33.30
2022-12-17T18:06:57.546Z,34.65
2022-12-17T18:13:21.594Z,41.35
2022-12-17T18:19:23.284Z,48.33
2022-12-17T18:25:25.076Z,47.97
2022-12-17T18:31:27.017Z,45.17
2022-12-17T18:37:28.768Z,42.60
2022-12-17T18:43:30.501Z,43.83
2022-12-17T18:49:32.242Z,45.58
2022-12-17T18:55:35.787Z,44.55
2022-12-17T19:01:37.763Z,41.47
2022-12-17T19:07:39.663Z,43.38
2022-12-17T19:13:41.481Z,47.50
2022-12-17T19:19:43.218Z,43.80
2022-12-17T19:25:44.873Z,43.03
2022-12-17T19:31:46.819Z,48.05
2022-12-17T19:37:49.996Z,44.15
2022-12-17T19:43:59.639Z,38.25
2022-12-17T19:50:01.384Z,41.97
2022-12-17T19:56:23.340Z,44.15
2022-12-17T20:02:30.957Z,31.98
2022-12-17T20:08:35.042Z,33.17
2022-12-17T20:14:37.746Z,33.88
2022-12-17T20:20:39.444Z,47.47
2022-12-17T20:26:41.788Z,46.50
2022-12-17T20:32:43.470Z,44.63
2022-12-17T20:38:45.531Z,44.80
2022-12-17T20:44:53.070Z,46.22
2022-12-17T20:50:55.208Z,36.83
2022-12-17T20:56:56.952Z,10.10
2022-12-17T21:02:59.094Z,9.07
2022-12-17T21:09:01.627Z,9.88
2022-12-17T21:15:03.510Z,7.82
2022-12-17T21:21:08.567Z,8.13
2022-12-17T21:27:14.690Z,8.23
2022-12-17T21:33:16.765Z,7.15
2022-12-17T21:39:19.977Z,7.00
2022-12-17T21:45:21.702Z,6.90
2022-12-17T21:51:24.317Z,7.03
2022-12-17T21:57:26.337Z,7.03
2022-12-17T22:03:28.047Z,6.30
2022-12-17T22:09:41.937Z,7.82
2022-12-17T22:15:55.502Z,5.90
2022-12-17T22:21:58.103Z,5.38
2022-12-17T22:27:59.928Z,5.60
2022-12-17T22:35:10.223Z,5.50
2022-12-17T22:44:29.591Z,5.38
2022-12-17T22:46:46.029Z,5.10
2022-12-17T22:52:47.892Z,5.82
2022-12-17T22:58:50.218Z,5.75
2022-12-17T23:04:51.991Z,5.43
2022-12-17T23:10:53.748Z,27.73
2022-12-17T23:16:55.459Z,41.00
2022-12-17T23:22:57.331Z,28.30
2022-12-17T23:29:04.929Z,5.47
2022-12-17T23:35:08.088Z,5.60
2022-12-17T23:47:20.702Z,5.32
2022-12-17T23:53:22.399Z,5.22
2022-12-17T23:59:24.199Z,30.88
